Time;durP1;ratioP1;P1;durP2;ratioP2;P2;SDS_P1;SDS_P2;PMS_P1;PMS_P2;Temp;Humidity;BMP_temperature;BMP_pressure;BME280_temperature;BME280_humidity;BME280_pressure;Samples;Min_cycle;Max_cycle;Signal;HPM_P1;HPM_P2
2022/08/17 00:00:50;;;;;;;30.05;25.25;;;19.50;99.90;;;;;;5017227;28;20056;-71
2022/08/17 00:03:20;;;;;;;40.05;30.42;;;19.50;99.90;;;;;;5016871;28;20343;-70
2022/08/17 00:05:58;;;;;;;39.67;31.30;;;19.50;99.90;;;;;;5016624;28;20452;-71
2022/08/17 00:08:30;;;;;;;38.00;29.02;;;19.60;99.90;;;;;;5017366;28;20498;-71
2022/08/17 00:10:57;;;;;;;36.60;29.25;;;19.60;99.90;;;;;;5017153;28;20054;-71
2022/08/17 00:13:30;;;;;;;43.05;31.50;;;19.60;99.90;;;;;;5017130;28;20422;-71
2022/08/17 00:15:59;;;;;;;56.50;32.60;;;19.70;99.90;;;;;;5016727;28;20402;-70
2022/08/17 00:18:27;;;;;;;43.60;31.20;;;19.70;99.90;;;;;;5016577;28;20042;-70
2022/08/17 00:20:54;;;;;;;35.88;27.95;;;19.70;99.90;;;;;;5016764;28;20046;-71
2022/08/17 00:23:20;;;;;;;39.97;30.63;;;19.80;99.90;;;;;;5017046;28;20347;-71
2022/08/17 00:25:46;;;;;;;45.70;31.60;;;19.80;99.90;;;;;;5017241;28;20417;-71
2022/08/17 00:28:14;;;;;;;42.67;29.88;;;19.80;99.90;;;;;;5016928;28;20042;-71
2022/08/17 00:30:42;;;;;;;38.92;29.88;;;19.80;99.90;;;;;;5016534;28;20072;-71
2022/08/17 00:33:11;;;;;;;37.88;30.23;;;19.70;99.90;;;;;;5014947;28;20073;-71
2022/08/17 00:35:38;;;;;;;35.97;28.20;;;19.80;99.90;;;;;;5016505;28;20081;-70
2022/08/17 00:38:08;;;;;;;35.13;27.42;;;19.60;99.90;;;;;;5016717;28;20100;-71
2022/08/17 00:40:48;;;;;;;46.47;33.13;;;19.60;99.90;;;;;;5016460;28;20057;-71
2022/08/17 00:43:16;;;;;;;45.05;31.67;;;19.50;99.90;;;;;;5016626;28;20469;-71
2022/08/17 00:45:43;;;;;;;40.95;30.20;;;19.50;99.90;;;;;;5016106;28;20042;-70
2022/08/17 00:48:09;;;;;;;39.08;29.80;;;19.40;99.90;;;;;;5016198;28;20046;-71
2022/08/17 00:50:36;;;;;;;41.00;31.92;;;19.40;99.90;;;;;;4983070;28;20045;-70
2022/08/17 00:53:03;;;;;;;42.00;30.20;;;19.30;99.90;;;;;;5016245;28;20038;-70
2022/08/17 00:55:30;;;;;;;41.30;31.70;;;19.30;99.90;;;;;;5016373;28;20418;-70
2022/08/17 00:57:59;;;;;;;40.70;31.13;;;19.30;99.90;;;;;;5016103;28;20042;-70
2022/08/17 01:00:29;;;;;;;42.63;32.17;;;19.20;99.90;;;;;;5015844;28;20050;-71
2022/08/17 01:02:59;;;;;;;37.05;30.52;;;19.30;99.90;;;;;;5015623;28;20050;-70
2022/08/17 01:05:30;;;;;;;36.97;28.27;;;19.20;99.90;;;;;;5015755;28;20038;-70
2022/08/17 01:07:58;;;;;;;37.78;29.35;;;19.10;99.90;;;;;;5016119;28;20077;-71
2022/08/17 01:10:31;;;;;;;37.65;29.75;;;19.10;99.90;;;;;;5015934;28;20042;-70
2022/08/17 01:13:01;;;;;;;39.83;29.90;;;19.00;99.90;;;;;;5015875;28;20050;-71
2022/08/17 01:15:29;;;;;;;39.85;30.90;;;19.00;99.90;;;;;;5016355;28;20420;-70
2022/08/17 01:17:55;;;;;;;36.28;28.90;;;19.00;99.90;;;;;;5015016;28;20042;-70
2022/08/17 01:20:21;;;;;;;39.83;31.58;;;19.00;99.90;;;;;;5015832;28;20042;-71
2022/08/17 01:22:46;;;;;;;48.30;34.13;;;19.00;99.90;;;;;;5015602;28;20065;-70
2022/08/17 01:25:13;;;;;;;38.47;30.17;;;19.00;99.90;;;;;;5015213;28;20458;-71
2022/08/17 01:27:40;;;;;;;48.08;33.50;;;18.90;99.90;;;;;;5015658;28;20037;-71
2022/08/17 01:30:10;;;;;;;44.60;34.05;;;18.90;99.90;;;;;;4998295;28;20061;-71
2022/08/17 01:32:35;;;;;;;50.58;35.13;;;18.90;99.90;;;;;;5015777;28;20045;-72
2022/08/17 01:35:03;;;;;;;45.38;34.50;;;18.90;99.90;;;;;;5015294;28;20488;-70
2022/08/17 01:37:35;;;;;;;43.53;31.70;;;18.90;99.90;;;;;;5015420;28;20100;-70
2022/08/17 01:40:12;;;;;;;47.50;34.23;;;18.90;99.90;;;;;;5015299;28;20042;-70
2022/08/17 01:42:50;;;;;;;51.63;35.60;;;18.80;99.90;;;;;;5015550;28;20281;-71
2022/08/17 01:45:29;;;;;;;52.80;34.88;;;18.80;99.90;;;;;;5016207;28;20094;-70
2022/08/17 01:47:55;;;;;;;43.28;31.92;;;18.70;99.90;;;;;;5015294;28;20046;-70
2022/08/17 01:50:29;;;;;;;48.75;33.53;;;18.70;99.90;;;;;;5015529;28;20116;-70
2022/08/17 01:53:02;;;;;;;42.60;31.75;;;18.70;99.90;;;;;;5015135;28;20344;-71
2022/08/17 01:55:44;;;;;;;47.83;34.67;;;18.70;99.90;;;;;;5015544;28;20409;-71
2022/08/17 01:58:10;;;;;;;53.30;37.92;;;18.60;99.90;;;;;;5015066;28;20045;-71
2022/08/17 02:00:38;;;;;;;46.97;33.92;;;18.60;99.90;;;;;;5015117;28;20129;-71
2022/08/17 02:03:04;;;;;;;75.97;37.17;;;18.60;99.90;;;;;;5015173;28;20104;-70
2022/08/17 02:05:31;;;;;;;66.38;36.38;;;18.70;99.90;;;;;;5015064;28;20128;-70
2022/08/17 02:07:58;;;;;;;51.88;36.53;;;18.70;99.90;;;;;;4997318;28;20073;-71
2022/08/17 02:10:25;;;;;;;53.35;37.78;;;18.70;99.90;;;;;;5015574;28;20132;-70
2022/08/17 02:12:51;;;;;;;62.75;37.53;;;18.70;99.90;;;;;;5014937;28;20084;-71
2022/08/17 02:15:17;;;;;;;39.92;32.35;;;18.70;99.90;;;;;;5015191;28;20447;-70
2022/08/17 02:17:43;;;;;;;40.63;31.42;;;18.70;99.90;;;;;;5018632;28;20045;-70
2022/08/17 02:20:09;;;;;;;36.63;29.20;;;18.70;99.90;;;;;;5002460;28;20439;-70
2022/08/17 02:22:37;;;;;;;36.75;29.88;;;18.70;99.90;;;;;;5018861;28;20042;-70
2022/08/17 02:25:04;;;;;;;34.63;27.92;;;18.60;99.90;;;;;;5019191;28;20066;-71
2022/08/17 02:27:30;;;;;;;33.72;28.08;;;18.60;99.90;;;;;;5018771;28;20056;-71
2022/08/17 02:29:56;;;;;;;37.15;29.17;;;18.60;99.90;;;;;;5018788;28;20042;-71
2022/08/17 02:32:24;;;;;;;36.00;28.90;;;18.50;99.90;;;;;;5019078;28;20042;-70
2022/08/17 02:34:50;;;;;;;40.88;28.02;;;18.60;99.90;;;;;;5018722;28;20050;-71
2022/08/17 02:37:17;;;;;;;49.17;25.80;;;18.50;99.90;;;;;;5018153;28;20045;-71
2022/08/17 02:39:46;;;;;;;33.13;27.70;;;18.50;99.90;;;;;;5018596;28;20088;-71
2022/08/17 02:42:12;;;;;;;149.20;28.85;;;18.50;99.90;;;;;;5018718;28;20484;-71
2022/08/17 02:44:39;;;;;;;51.00;27.85;;;18.40;99.90;;;;;;5018503;28;20100;-70
2022/08/17 02:47:05;;;;;;;29.17;26.05;;;18.40;99.90;;;;;;5018399;28;20046;-71
2022/08/17 02:49:30;;;;;;;48.47;28.25;;;18.40;99.90;;;;;;5018875;28;20068;-71
2022/08/17 02:51:57;;;;;;;33.25;28.35;;;18.40;99.90;;;;;;5018781;28;20096;-71
2022/08/17 02:54:23;;;;;;;30.60;25.10;;;18.40;99.90;;;;;;5018174;28;20042;-70
2022/08/17 02:56:49;;;;;;;48.17;27.80;;;18.30;99.90;;;;;;5018040;28;20180;-70
2022/08/17 02:59:14;;;;;;;34.70;27.70;;;18.30;99.90;;;;;;5018594;28;20506;-71
2022/08/17 03:01:40;;;;;;;30.85;27.13;;;18.30;99.90;;;;;;5018287;28;20041;-70
2022/08/17 03:04:05;;;;;;;29.67;26.58;;;18.40;99.90;;;;;;5018654;28;20050;-71
2022/08/17 03:06:31;;;;;;;30.10;26.85;;;18.40;99.90;;;;;;5018277;28;20037;-70
2022/08/17 03:08:57;;;;;;;29.52;25.85;;;18.40;99.90;;;;;;5017941;28;20060;-71
2022/08/17 03:11:22;;;;;;;26.63;23.73;;;18.30;99.90;;;;;;5001618;28;20049;-70
2022/08/17 03:13:48;;;;;;;26.80;23.90;;;18.30;99.90;;;;;;5017862;28;20046;-70
2022/08/17 03:16:15;;;;;;;27.08;23.73;;;18.30;99.90;;;;;;5018483;28;20050;-70
2022/08/17 03:18:40;;;;;;;31.65;28.13;;;18.30;99.90;;;;;;5000623;28;20057;-71
2022/08/17 03:21:08;;;;;;;30.77;24.95;;;18.30;99.90;;;;;;5018047;28;20398;-70
2022/08/17 03:23:39;;;;;;;29.42;26.23;;;18.30;99.90;;;;;;5000315;28;20049;-71
2022/08/17 03:26:06;;;;;;;35.90;26.70;;;18.20;99.90;;;;;;5018120;28;20041;-71
2022/08/17 03:28:31;;;;;;;39.65;30.20;;;18.30;99.90;;;;;;5017664;28;20457;-71
2022/08/17 03:30:57;;;;;;;34.13;27.50;;;18.10;99.90;;;;;;5018449;28;20092;-70
2022/08/17 03:33:23;;;;;;;37.70;29.55;;;18.30;99.90;;;;;;5017953;28;20442;-69
2022/08/17 03:35:49;;;;;;;41.92;31.38;;;18.20;99.90;;;;;;5017990;28;20080;-70
2022/08/17 03:38:15;;;;;;;35.80;29.23;;;18.40;99.90;;;;;;5017278;28;20042;-71
2022/08/17 03:40:42;;;;;;;34.90;27.63;;;18.30;99.90;;;;;;5017232;28;20370;-69
2022/08/17 03:43:09;;;;;;;45.40;32.28;;;18.30;99.90;;;;;;5017847;28;20123;-71
2022/08/17 03:56:41;;;;;;;47.47;34.15;;;18.30;99.90;;;;;;5030278;28;20446;-70
2022/08/17 03:59:18;;;;;;;32.30;24.52;;;18.20;99.90;;;;;;5017189;28;20056;-70
2022/08/17 04:01:46;;;;;;;48.88;34.22;;;18.30;99.90;;;;;;5017139;28;20085;-70
2022/08/17 04:04:12;;;;;;;38.83;29.48;;;18.30;99.90;;;;;;5016203;28;20104;-70
2022/08/17 04:06:40;;;;;;;44.05;31.83;;;18.30;99.90;;;;;;5016722;28;20115;-71
2022/08/17 04:09:07;;;;;;;42.35;32.38;;;18.20;99.90;;;;;;5016399;28;20045;-70
2022/08/17 04:11:33;;;;;;;40.65;31.20;;;18.20;99.90;;;;;;5016331;28;20052;-70
2022/08/17 04:14:00;;;;;;;40.80;30.92;;;18.30;99.90;;;;;;5016272;28;20125;-71
2022/08/17 04:16:26;;;;;;;41.70;30.52;;;18.30;99.90;;;;;;5016740;28;20052;-70
2022/08/17 04:18:52;;;;;;;44.83;31.00;;;18.20;99.90;;;;;;4999399;28;20042;-71
2022/08/17 04:21:18;;;;;;;39.53;31.00;;;18.20;99.90;;;;;;5016484;28;20509;-70
2022/08/17 04:23:45;;;;;;;36.38;28.42;;;18.20;99.90;;;;;;5016381;28;20038;-70
2022/08/17 04:26:11;;;;;;;40.08;31.90;;;18.30;99.90;;;;;;5023534;28;20122;-71
2022/08/17 04:28:37;;;;;;;40.25;32.83;;;18.30;99.90;;;;;;5016090;28;20434;-70
2022/08/17 04:31:03;;;;;;;44.08;32.58;;;18.30;99.90;;;;;;5034067;28;20069;-71
2022/08/17 04:33:29;;;;;;;38.05;29.10;;;18.40;99.90;;;;;;5031941;28;20038;-70
2022/08/17 04:36:00;;;;;;;49.13;33.90;;;18.40;99.90;;;;;;5016712;28;20359;-71
2022/08/17 04:38:29;;;;;;;41.78;31.15;;;18.40;99.90;;;;;;4999192;28;20046;-70
2022/08/17 04:43:42;;;;;;;43.17;33.35;;;18.50;99.90;;;;;;5016237;28;20041;-70
2022/08/17 04:46:13;;;;;;;41.33;32.55;;;18.60;99.90;;;;;;5024587;28;20046;-72
2022/08/17 04:48:50;;;;;;;43.80;32.13;;;18.60;99.90;;;;;;5035947;28;20103;-71
2022/08/17 04:51:18;;;;;;;48.45;35.63;;;18.60;99.90;;;;;;5035763;28;20099;-70
2022/08/17 04:53:46;;;;;;;40.75;31.60;;;18.70;99.90;;;;;;5035555;28;20567;-70
2022/08/17 04:56:16;;;;;;;44.30;34.42;;;18.60;99.90;;;;;;5036072;28;20096;-70
2022/08/17 04:58:43;;;;;;;42.75;32.15;;;18.70;99.90;;;;;;5036250;28;20111;-70
2022/08/17 05:01:09;;;;;;;46.80;35.40;;;18.80;99.90;;;;;;5018226;28;20128;-70
2022/08/17 05:03:35;;;;;;;46.42;33.53;;;18.70;99.90;;;;;;5015260;28;20136;-71
2022/08/17 05:06:01;;;;;;;48.40;36.55;;;18.80;99.90;;;;;;5015006;28;20037;-70
2022/08/17 05:08:27;;;;;;;41.42;32.17;;;18.80;99.90;;;;;;5015564;28;20052;-71
2022/08/17 05:10:52;;;;;;;47.47;35.05;;;18.80;99.90;;;;;;5015105;28;20216;-70
2022/08/17 05:13:23;;;;;;;45.30;34.15;;;18.90;99.90;;;;;;5015824;28;20053;-70
2022/08/17 05:15:55;;;;;;;46.95;35.83;;;18.90;99.90;;;;;;5015371;28;20052;-71
2022/08/17 05:18:21;;;;;;;43.15;33.67;;;19.00;99.90;;;;;;5015214;28;20046;-70
2022/08/17 05:20:47;;;;;;;48.85;35.63;;;18.90;99.90;;;;;;5015326;28;20124;-71
2022/08/17 05:23:15;;;;;;;43.03;33.10;;;18.90;99.90;;;;;;5015185;28;20109;-71
2022/08/17 05:25:44;;;;;;;46.75;35.60;;;18.90;99.90;;;;;;5015563;28;20041;-71
2022/08/17 05:28:10;;;;;;;51.97;37.20;;;18.90;99.90;;;;;;5015477;28;20053;-70
2022/08/17 05:30:38;;;;;;;52.25;33.88;;;18.90;99.90;;;;;;5014792;28;20061;-70
2022/08/17 05:33:08;;;;;;;50.92;37.40;;;18.90;99.90;;;;;;5015296;28;20049;-71
2022/08/17 05:35:36;;;;;;;60.67;39.55;;;18.80;99.90;;;;;;5015281;28;20077;-68
2022/08/17 05:38:03;;;;;;;59.83;38.20;;;18.90;99.90;;;;;;5017195;28;20044;-70
2022/08/17 05:40:29;;;;;;;62.22;40.72;;;19.00;99.90;;;;;;5014700;28;20042;-69
2022/08/17 05:43:07;;;;;;;54.72;38.97;;;19.00;99.90;;;;;;5014785;28;20117;-71
2022/08/17 05:45:34;;;;;;;66.55;43.78;;;19.00;99.90;;;;;;5014886;28;20125;-70
2022/08/17 05:47:59;;;;;;;61.45;43.25;;;19.00;99.90;;;;;;5014866;28;20129;-71
2022/08/17 05:50:30;;;;;;;62.35;42.47;;;19.00;99.90;;;;;;5014341;28;20428;-70
2022/08/17 05:53:04;;;;;;;60.80;40.50;;;19.10;99.90;;;;;;5015134;28;20046;-70
2022/08/17 05:56:11;;;;;;;60.70;42.22;;;19.00;99.90;;;;;;5014342;28;20057;-72
2022/08/17 05:58:47;;;;;;;65.82;44.50;;;19.10;99.90;;;;;;4944727;28;20084;-71
2022/08/17 06:01:32;;;;;;;66.93;44.83;;;19.10;99.90;;;;;;5014553;28;20054;-71
2022/08/17 06:04:28;;;;;;;56.58;40.50;;;19.10;99.90;;;;;;5014630;28;20057;-71
2022/08/17 06:07:00;;;;;;;58.95;42.17;;;19.10;99.90;;;;;;4997380;28;20141;-70
2022/08/17 06:09:33;;;;;;;72.15;46.17;;;19.20;99.90;;;;;;5014375;28;20054;-70
2022/08/17 06:12:28;;;;;;;71.40;48.33;;;19.20;99.90;;;;;;4997506;28;20119;-73
2022/08/17 06:15:25;;;;;;;77.90;47.92;;;19.20;99.90;;;;;;5014467;28;20050;-71
2022/08/17 06:17:56;;;;;;;70.07;47.67;;;19.20;99.90;;;;;;5015010;28;20076;-71
2022/08/17 06:20:24;;;;;;;75.70;46.67;;;19.20;99.90;;;;;;5017365;28;20042;-71
2022/08/17 06:22:55;;;;;;;81.72;50.38;;;19.20;99.90;;;;;;5034740;28;20052;-71
2022/08/17 06:25:39;;;;;;;85.05;48.78;;;19.20;99.90;;;;;;5024165;28;20042;-71
2022/08/17 06:28:13;;;;;;;78.30;50.38;;;19.20;99.90;;;;;;5014804;28;20038;-70
2022/08/17 06:30:49;;;;;;;72.47;47.65;;;19.10;99.90;;;;;;5014586;28;20412;-70
2022/08/17 06:33:22;;;;;;;76.30;47.08;;;19.30;99.90;;;;;;5014691;28;20358;-70
2022/08/17 06:36:01;;;;;;;67.95;46.53;;;19.30;99.90;;;;;;5014457;28;20056;-70
2022/08/17 06:38:58;;;;;;;85.40;50.10;;;19.30;99.90;;;;;;5014264;28;20053;-69
2022/08/17 06:41:33;;;;;;;67.32;43.55;;;19.30;99.90;;;;;;5014181;28;20417;-70
2022/08/17 06:44:16;;;;;;;67.70;43.90;;;19.30;99.90;;;;;;5014338;28;20050;-70
2022/08/17 06:46:53;;;;;;;73.15;47.00;;;19.30;99.90;;;;;;5014637;28;20045;-70
2022/08/17 06:50:03;;;;;;;60.83;41.63;;;19.30;99.90;;;;;;5014626;28;20060;-70
2022/08/17 06:52:33;;;;;;;69.30;44.72;;;19.40;99.90;;;;;;4953777;29;20526;-70
2022/08/17 06:55:13;;;;;;;69.53;45.63;;;19.40;99.90;;;;;;5007048;28;20084;-70
2022/08/17 06:57:46;;;;;;;75.90;48.00;;;19.40;99.90;;;;;;4997110;28;20153;-70
2022/08/17 07:00:16;;;;;;;87.18;50.80;;;19.40;99.90;;;;;;5013823;28;20054;-70
2022/08/17 07:02:59;;;;;;;71.82;44.85;;;19.40;99.90;;;;;;5016402;28;20072;-71
2022/08/17 07:05:29;;;;;;;;;;;19.50;99.90;;;;;;5018516;28;20046;-71
2022/08/17 07:08:08;;;;;;;90.68;50.95;;;19.40;99.90;;;;;;5017605;28;19972;-71
2022/08/17 07:10:44;;;;;;;80.75;50.08;;;19.60;99.90;;;;;;5018206;28;20088;-71
2022/08/17 07:13:39;;;;;;;91.30;53.38;;;19.70;99.90;;;;;;5017676;28;20049;-71
2022/08/17 07:16:35;;;;;;;87.22;52.08;;;19.70;99.90;;;;;;4988723;28;20498;-71
2022/08/17 07:19:00;;;;;;;79.32;49.22;;;19.80;99.90;;;;;;5036259;28;20042;-71
2022/08/17 07:21:48;;;;;;;93.07;52.67;;;20.00;99.90;;;;;;5018153;28;20042;-71
2022/08/17 07:24:40;;;;;;;92.47;53.05;;;20.00;99.90;;;;;;5017954;28;20099;-71
2022/08/17 07:27:21;;;;;;;92.25;50.63;;;20.20;99.90;;;;;;5017380;28;20046;-71
2022/08/17 07:29:52;;;;;;;80.07;48.30;;;20.30;99.90;;;;;;5017373;28;20077;-71
2022/08/17 07:32:22;;;;;;;81.82;50.42;;;20.30;99.90;;;;;;5017368;28;20056;-71
2022/08/17 07:35:09;;;;;;;83.82;50.63;;;20.40;99.90;;;;;;5017373;28;20138;-71
2022/08/17 07:37:41;;;;;;;77.47;47.88;;;20.30;99.90;;;;;;5017825;28;20362;-72
2022/08/17 07:40:18;;;;;;;76.90;48.45;;;20.20;99.90;;;;;;5017276;28;20050;-71
2022/08/17 07:43:01;;;;;;;75.60;44.97;;;20.20;99.90;;;;;;5016789;28;20477;-71
2022/08/17 07:48:19;;;;;;;62.00;42.95;;;20.20;99.90;;;;;;5018290;28;20113;-71
2022/08/17 07:50:44;;;;;;;66.65;44.13;;;20.20;99.90;;;;;;5016832;28;20054;-72
2022/08/17 07:53:25;;;;;;;66.75;42.97;;;20.10;99.90;;;;;;5017492;28;20577;-71
2022/08/17 07:55:52;;;;;;;64.43;42.97;;;20.30;99.90;;;;;;5016983;28;20188;-70
2022/08/17 07:58:20;;;;;;;61.67;43.65;;;20.40;99.90;;;;;;5016744;28;20418;-70
2022/08/17 08:01:06;;;;;;;61.05;42.00;;;20.50;99.90;;;;;;5016949;28;20045;-70
2022/08/17 08:03:32;;;;;;;63.90;42.17;;;20.50;99.90;;;;;;5017347;28;20370;-70
2022/08/17 08:06:01;;;;;;;57.97;41.13;;;20.60;99.90;;;;;;5015947;28;20053;-71
2022/08/17 08:08:26;;;;;;;59.38;40.20;;;20.70;99.90;;;;;;4999514;28;20046;-70
2022/08/17 08:11:16;;;;;;;61.55;41.10;;;20.80;99.90;;;;;;4999516;28;20450;-71
2022/08/17 08:13:44;;;;;;;57.35;39.00;;;21.00;99.90;;;;;;5015909;28;20050;-70
2022/08/17 08:16:15;;;;;;;59.80;39.40;;;21.00;99.90;;;;;;5016316;28;20065;-71
2022/08/17 08:18:44;;;;;;;57.45;40.25;;;21.00;99.90;;;;;;5018178;28;20457;-71
2022/08/17 08:21:40;;;;;;;54.05;38.47;;;21.00;99.90;;;;;;5036608;28;20100;-70
2022/08/17 08:24:40;;;;;;;52.60;39.50;;;21.00;99.90;;;;;;5019310;28;20046;-71
2022/08/17 08:27:19;;;;;;;49.90;37.67;;;21.10;99.90;;;;;;5016701;28;20124;-72
2022/08/17 08:29:52;;;;;;;54.45;39.90;;;21.10;99.90;;;;;;5016208;28;20073;-72
2022/08/17 08:32:49;;;;;;;48.63;38.30;;;21.20;99.90;;;;;;5016475;28;20454;-71
2022/08/17 08:35:43;;;;;;;49.33;38.00;;;21.30;99.90;;;;;;5016100;28;20054;-72
2022/08/17 08:38:24;;;;;;;47.45;37.28;;;21.40;99.90;;;;;;5008160;28;20074;-71
2022/08/17 08:41:04;;;;;;;48.70;36.78;;;21.40;99.90;;;;;;5016089;28;20097;-71
2022/08/17 08:43:41;;;;;;;49.92;38.67;;;21.50;99.90;;;;;;5000540;28;20042;-71
2022/08/17 08:46:41;;;;;;;51.88;39.67;;;21.60;99.90;;;;;;5016496;28;20050;-71
2022/08/17 08:49:28;;;;;;;51.97;39.72;;;21.60;99.90;;;;;;5015867;28;20049;-72
2022/08/17 08:51:57;;;;;;;56.45;39.47;;;21.60;99.90;;;;;;4999408;28;20347;-72
2022/08/17 08:54:37;;;;;;;54.00;41.30;;;21.80;99.90;;;;;;5015948;28;20033;-72
2022/08/17 08:57:14;;;;;;;57.20;43.50;;;21.70;99.90;;;;;;5016197;28;20107;-71
2022/08/17 08:59:51;;;;;;;54.20;41.63;;;21.70;99.90;;;;;;5015852;28;20068;-72
2022/08/17 09:02:45;;;;;;;50.28;35.72;;;21.60;99.90;;;;;;5015438;28;20053;-73
2022/08/17 09:05:22;;;;;;;54.15;40.35;;;21.60;99.90;;;;;;5011236;28;20061;-72
2022/08/17 09:08:15;;;;;;;57.08;41.03;;;21.50;99.90;;;;;;5015922;28;20041;-73
2022/08/17 09:11:08;;;;;;;49.97;37.33;;;21.40;99.90;;;;;;5015653;28;20046;-72
2022/08/17 09:13:51;;;;;;;45.22;32.55;;;21.50;99.90;;;;;;5015924;28;20042;-73
2022/08/17 09:16:28;;;;;;;51.70;35.63;;;21.50;99.90;;;;;;5014996;28;20050;-73
2022/08/17 09:19:01;;;;;;;44.60;34.55;;;21.60;99.90;;;;;;5015591;28;20414;-72
2022/08/17 09:21:42;;;;;;;48.15;35.13;;;21.70;99.90;;;;;;4999941;28;20045;-73
2022/08/17 09:24:26;;;;;;;48.90;36.47;;;21.80;99.90;;;;;;5015524;28;20420;-72
2022/08/17 09:27:06;;;;;;;52.13;36.45;;;21.90;99.90;;;;;;5015454;28;20069;-72
2022/08/17 09:29:35;;;;;;;49.40;36.75;;;22.00;99.90;;;;;;5015566;28;20038;-73
2022/08/17 09:32:19;;;;;;;49.00;37.25;;;21.80;99.90;;;;;;5014841;28;20050;-73
2022/08/17 09:34:58;;;;;;;51.78;37.28;;;21.80;99.90;;;;;;5014970;28;20370;-72
2022/08/17 09:37:36;;;;;;;48.33;35.92;;;21.70;99.90;;;;;;5014727;28;20061;-73
2022/08/17 09:40:16;;;;;;;51.75;39.25;;;21.70;99.90;;;;;;4998339;28;20050;-71
2022/08/17 09:42:58;;;;;;;49.33;37.60;;;21.70;99.90;;;;;;4997315;28;20054;-72
2022/08/17 09:45:55;;;;;;;50.33;38.03;;;21.70;99.90;;;;;;5015479;28;20173;-72
2022/08/17 09:48:54;;;;;;;53.47;39.00;;;21.80;99.90;;;;;;5014944;28;20077;-73
2022/08/17 09:51:35;;;;;;;55.28;39.15;;;21.70;99.90;;;;;;5009881;28;20486;-73
2022/08/17 09:54:01;;;;;;;48.45;36.53;;;21.60;99.90;;;;;;5014960;28;20116;-73
2022/08/17 09:56:50;;;;;;;48.08;36.13;;;21.50;99.90;;;;;;5014676;28;20417;-74
2022/08/17 09:59:40;;;;;;;48.95;35.08;;;21.50;99.90;;;;;;5002345;28;20060;-75
2022/08/17 10:02:41;;;;;;;41.85;31.25;;;21.50;99.90;;;;;;5015727;28;20363;-77
2022/08/17 10:05:39;;;;;;;49.25;35.65;;;21.40;99.90;;;;;;5014491;28;20517;-72
2022/08/17 10:08:33;;;;;;;52.47;36.55;;;21.40;99.90;;;;;;5006526;28;20048;-73
2022/08/17 10:12:14;;;;;;;48.97;33.75;;;21.40;99.90;;;;;;5014538;28;20049;-73
2022/08/17 10:14:18;;;;;;;49.13;34.88;;;21.50;99.90;;;;;;5014831;28;20371;-72
2022/08/17 10:16:50;;;;;;;49.95;35.70;;;21.70;99.90;;;;;;5015105;28;20049;-75
2022/08/17 10:19:32;;;;;;;47.25;34.60;;;21.70;99.90;;;;;;5014534;28;20053;-74
2022/08/17 10:27:40;;;;;;;47.58;34.17;;;22.10;99.90;;;;;;5014214;28;20046;-72
2022/08/17 10:30:09;;;;;;;41.22;32.28;;;22.20;99.90;;;;;;5014115;28;20128;-73
2022/08/17 10:32:43;;;;;;;49.17;36.47;;;22.30;99.90;;;;;;5017459;28;20370;-73
2022/08/17 10:35:16;;;;;;;48.22;36.08;;;22.40;99.90;;;;;;5013323;28;20184;-72
2022/08/17 10:37:58;;;;;;;56.92;40.33;;;22.40;99.90;;;;;;5015679;28;20049;-73
2022/08/17 10:40:45;;;;;;;54.80;41.70;;;22.40;99.90;;;;;;5005283;28;20362;-73
2022/08/17 10:43:45;;;;;;;52.72;41.25;;;22.30;99.90;;;;;;5017432;28;20054;-73
2022/08/17 10:46:24;;;;;;;48.83;38.17;;;22.30;99.90;;;;;;5018068;28;20042;-73
2022/08/17 10:49:19;;;;;;;57.30;43.85;;;22.20;99.90;;;;;;5017696;28;20108;-74
2022/08/17 10:51:54;;;;;;;49.67;38.47;;;22.40;99.90;;;;;;5004595;28;20060;-74
2022/08/17 10:54:34;;;;;;;50.42;39.72;;;22.40;99.90;;;;;;5017437;28;20129;-74
2022/08/17 10:57:00;;;;;;;47.42;38.35;;;22.50;99.90;;;;;;5017610;28;20037;-72
2022/08/17 10:59:35;;;;;;;46.08;37.15;;;22.50;99.90;;;;;;5000040;28;20042;-73
2022/08/17 11:02:03;;;;;;;47.15;35.72;;;22.60;99.90;;;;;;5017618;28;20046;-73
2022/08/17 11:04:56;;;;;;;47.72;38.88;;;22.70;99.90;;;;;;5017606;28;20054;-73
2022/08/17 11:07:46;;;;;;;51.67;41.67;;;22.90;99.90;;;;;;5017259;28;20367;-76
2022/08/17 11:10:36;;;;;;;45.90;39.38;;;23.00;99.90;;;;;;5017121;28;20300;-74
2022/08/17 11:13:36;;;;;;;46.10;39.42;;;23.00;99.90;;;;;;5017665;28;20073;-73
2022/08/17 11:16:29;;;;;;;43.80;38.78;;;23.10;99.90;;;;;;5017133;28;20046;-73
2022/08/17 11:19:04;;;;;;;42.83;34.85;;;23.40;99.90;;;;;;5017045;28;20060;-73
2022/08/17 11:21:42;;;;;;;38.08;33.97;;;23.50;99.90;;;;;;5016855;28;20084;-75
2022/08/17 11:24:32;;;;;;;40.50;34.90;;;23.80;99.90;;;;;;5017147;28;20124;-73
2022/08/17 11:27:16;;;;;;;38.33;32.88;;;24.00;99.90;;;;;;5016808;28;20054;-74
2022/08/17 11:29:47;;;;;;;44.85;36.25;;;24.10;99.90;;;;;;5017281;28;20060;-74
2022/08/17 11:32:43;;;;;;;41.92;36.83;;;24.20;99.90;;;;;;5017021;28;20374;-72
2022/08/17 11:35:21;;;;;;;43.83;36.38;;;24.30;99.90;;;;;;5016942;28;20077;-73
2022/08/17 11:38:11;;;;;;;41.13;34.28;;;24.40;99.90;;;;;;5016730;28;20378;-75
2022/08/17 11:41:12;;;;;;;34.50;29.58;;;24.50;99.90;;;;;;5016986;28;20061;-73
2022/08/17 11:44:14;;;;;;;33.50;27.27;;;24.60;99.90;;;;;;4957060;29;20074;-74
2022/08/17 11:53:36;;;;;;;30.02;25.45;;;24.40;99.90;;;;;;5017342;28;20046;-74
2022/08/17 11:56:28;;;;;;;26.73;23.00;;;24.20;99.90;;;;;;5017124;28;20058;-72
2022/08/17 11:58:54;;;;;;;28.60;21.83;;;24.10;99.90;;;;;;4999677;28;20042;-74
2022/08/17 12:01:27;;;;;;;23.10;19.50;;;24.10;99.90;;;;;;5016018;28;20056;-73
2022/08/17 12:04:13;;;;;;;22.75;18.20;;;24.20;99.90;;;;;;4997985;28;20069;-73
2022/08/17 12:06:50;;;;;;;25.08;17.63;;;24.20;99.90;;;;;;4997705;28;20061;-74
2022/08/17 12:09:23;;;;;;;21.02;18.00;;;24.20;99.90;;;;;;4997778;28;20125;-74
2022/08/17 12:12:08;;;;;;;20.67;18.48;;;24.10;99.90;;;;;;4997168;28;20054;-74
2022/08/17 12:14:34;;;;;;;20.50;17.23;;;24.10;99.90;;;;;;4996529;28;20128;-73
2022/08/17 12:17:10;;;;;;;18.20;16.17;;;24.00;99.90;;;;;;5004249;28;20139;-74
2022/08/17 12:19:38;;;;;;;23.95;16.08;;;24.00;99.90;;;;;;5016834;28;20052;-74
2022/08/17 12:22:32;;;;;;;20.60;16.33;;;24.00;99.90;;;;;;5016980;28;20128;-71
2022/08/17 12:25:22;;;;;;;19.60;14.82;;;24.10;99.90;;;;;;4999549;28;20050;-71
2022/08/17 12:27:50;;;;;;;14.55;12.07;;;24.20;99.90;;;;;;5016392;28;20050;-72
2022/08/17 12:30:19;;;;;;;13.45;10.43;;;24.30;99.90;;;;;;5016614;28;20042;-70
2022/08/17 12:32:47;;;;;;;13.68;11.02;;;24.40;99.90;;;;;;5016600;28;20061;-70
2022/08/17 12:35:34;;;;;;;14.48;11.20;;;24.40;99.90;;;;;;5016600;28;20060;-71
2022/08/17 12:38:01;;;;;;;13.77;11.38;;;24.50;99.90;;;;;;5016524;28;20081;-72
2022/08/17 12:40:30;;;;;;;15.32;12.07;;;24.40;99.90;;;;;;5016436;28;20037;-71
2022/08/17 12:42:57;;;;;;;16.45;14.63;;;24.40;99.90;;;;;;5016633;28;20433;-73
2022/08/17 12:45:30;;;;;;;19.80;13.30;;;24.40;99.90;;;;;;5016721;28;20041;-71
2022/08/17 12:48:07;;;;;;;;;;;24.50;99.90;;;;;;5016441;28;20380;-72
2022/08/17 12:50:34;;;;;;;20.05;15.35;;;24.50;99.90;;;;;;5016641;28;19921;-74
2022/08/17 12:53:00;;;;;;;19.35;12.85;;;24.60;99.90;;;;;;5016560;28;20398;-73
2022/08/17 12:55:27;;;;;;;15.10;12.77;;;24.60;99.90;;;;;;5016195;28;20128;-73
2022/08/17 12:57:58;;;;;;;20.50;14.07;;;24.70;99.90;;;;;;5016439;28;20034;-72
2022/08/17 13:00:30;;;;;;;18.30;12.68;;;24.70;99.90;;;;;;4998298;28;20153;-74
2022/08/17 13:03:12;;;;;;;15.90;12.83;;;24.60;99.90;;;;;;5015383;28;20462;-73
2022/08/17 13:05:42;;;;;;;15.73;11.75;;;24.50;99.90;;;;;;5016126;28;20060;-73
2022/08/17 13:08:17;;;;;;;14.90;11.55;;;24.40;99.90;;;;;;5016151;28;20046;-73
2022/08/17 13:10:56;;;;;;;16.90;12.75;;;24.30;99.90;;;;;;4998891;28;20056;-73
2022/08/17 13:13:26;;;;;;;22.30;16.52;;;24.30;99.90;;;;;;5015936;28;20052;-72
2022/08/17 13:15:57;;;;;;;18.92;13.75;;;24.10;99.90;;;;;;5015576;28;20054;-73
2022/08/17 13:18:37;;;;;;;15.52;13.85;;;24.10;99.90;;;;;;5015794;28;20065;-73
2022/08/17 13:21:04;;;;;;;18.40;14.13;;;24.10;99.90;;;;;;5015894;28;20477;-72
2022/08/17 13:23:32;;;;;;;16.98;12.73;;;24.00;99.90;;;;;;5015596;28;20049;-73
2022/08/17 13:26:14;;;;;;;14.40;11.98;;;24.00;99.90;;;;;;5015667;28;20046;-73
2022/08/17 13:28:47;;;;;;;16.45;13.80;;;24.10;99.90;;;;;;5015987;28;20336;-72
2022/08/17 13:31:26;;;;;;;23.65;16.48;;;24.10;99.90;;;;;;5015619;28;20046;-74
2022/08/17 13:34:11;;;;;;;20.15;16.40;;;24.10;99.90;;;;;;5015637;28;20054;-74